createdAt,value
2019-05-07T05:34:18.460Z,20.25
2019-05-07T05:37:04.367Z,21.00
2019-05-07T05:42:22.535Z,21.20
2019-05-07T05:44:58.570Z,21.33
2019-05-07T05:47:38.400Z,23.80
2019-05-07T05:50:14.850Z,22.27
2019-05-07T05:52:58.243Z,25.90
2019-05-07T05:55:52.705Z,21.62
2019-05-07T05:58:32.631Z,21.85
2019-05-07T06:01:25.363Z,26.42
2019-05-07T06:04:16.073Z,21.60
2019-05-07T06:08:03.688Z,26.30
2019-05-07T06:10:47.522Z,23.57
2019-05-07T06:13:28.180Z,26.23
2019-05-07T06:16:12.543Z,25.10
2019-05-07T06:18:52.432Z,26.85
2019-05-07T06:21:41.880Z,26.00
2019-05-07T06:24:18.223Z,26.50
2019-05-07T06:26:52.961Z,26.52
2019-05-07T06:29:28.289Z,25.57
2019-05-07T06:32:06.460Z,25.52
2019-05-07T06:34:44.269Z,27.80
2019-05-07T06:37:16.166Z,26.95
2019-05-07T06:42:52.721Z,27.30
2019-05-07T06:45:36.875Z,25.17
2019-05-07T06:48:12.586Z,27.95
2019-05-07T06:51:03.250Z,25.45
2019-05-07T06:54:36.268Z,24.65
2019-05-07T06:58:05.377Z,22.40
2019-05-07T07:00:42.239Z,27.87
2019-05-07T07:03:24.577Z,26.30
2019-05-07T07:06:05.522Z,28.45
2019-05-07T07:08:43.173Z,27.25
2019-05-07T07:11:22.302Z,24.77
2019-05-07T07:13:55.686Z,28.05
2019-05-07T07:16:29.584Z,26.87
2019-05-07T07:19:04.194Z,29.10
2019-05-07T07:21:42.196Z,25.25
2019-05-07T07:24:22.908Z,31.70
2019-05-07T07:26:56.442Z,27.87
2019-05-07T07:29:32.458Z,25.95
2019-05-07T07:32:13.334Z,25.82
2019-05-07T07:34:53.312Z,28.70
2019-05-07T07:37:27.207Z,29.72
2019-05-07T07:42:34.193Z,27.10
2019-05-07T07:45:22.915Z,28.70
2019-05-07T07:47:57.226Z,30.85
2019-05-07T07:50:33.024Z,24.82
2019-05-07T07:53:14.879Z,26.73
2019-05-07T07:56:17.108Z,27.87
2019-05-07T07:58:54.724Z,25.55
2019-05-07T08:01:46.092Z,27.32
2019-05-07T08:04:19.866Z,29.45
2019-05-07T08:07:08.454Z,27.02
2019-05-07T08:09:45.749Z,24.70
2019-05-07T08:12:18.371Z,25.57
2019-05-07T08:14:51.905Z,26.90
2019-05-07T08:17:25.933Z,27.40
2019-05-07T08:20:02.555Z,26.37
2019-05-07T08:22:49.369Z,26.85
2019-05-07T08:25:52.648Z,28.23
2019-05-07T08:28:29.189Z,26.27
2019-05-07T08:31:16.097Z,28.25
2019-05-07T08:33:56.098Z,26.45
2019-05-07T08:36:34.778Z,25.08
2019-05-07T08:39:13.033Z,25.48
2019-05-07T08:42:54.096Z,24.18
2019-05-07T08:45:55.511Z,25.68
2019-05-07T08:48:36.858Z,24.67
2019-05-07T08:51:11.916Z,22.98
2019-05-07T08:53:54.308Z,26.50
2019-05-07T08:56:35.034Z,26.65
2019-05-07T08:59:13.492Z,23.05
2019-05-07T09:01:48.952Z,24.55
2019-05-07T09:04:25.860Z,24.65
2019-05-07T09:07:02.797Z,25.80
2019-05-07T09:09:43.897Z,23.85
2019-05-07T09:12:17.877Z,26.87
2019-05-07T09:14:53.138Z,25.27
2019-05-07T09:17:26.561Z,26.40
2019-05-07T09:19:58.942Z,28.47
2019-05-07T09:22:43.303Z,24.47
2019-05-07T09:25:17.052Z,25.37
2019-05-07T09:27:59.233Z,27.18
2019-05-07T09:30:57.458Z,22.67
2019-05-07T09:33:37.500Z,24.43
2019-05-07T09:36:12.211Z,24.07
2019-05-07T09:38:58.372Z,23.98
2019-05-07T09:41:48.456Z,23.10
2019-05-07T09:44:23.694Z,21.40
2019-05-07T09:50:01.050Z,26.05
2019-05-07T09:52:45.582Z,22.35
2019-05-07T09:55:27.996Z,22.45
2019-05-07T09:58:02.395Z,24.52
2019-05-07T10:00:42.386Z,19.55
2019-05-07T10:03:25.726Z,26.10
2019-05-07T10:06:03.390Z,23.62
2019-05-07T10:08:41.906Z,20.10
2019-05-07T10:11:22.450Z,21.75
2019-05-07T10:14:12.481Z,21.95
2019-05-07T10:16:52.545Z,20.50
2019-05-07T10:19:32.462Z,22.32
2019-05-07T10:22:08.582Z,19.85
2019-05-07T10:25:05.059Z,22.67
2019-05-07T10:27:41.922Z,23.18
2019-05-07T10:30:21.858Z,21.57
2019-05-07T10:33:01.789Z,20.62
2019-05-07T10:35:43.978Z,20.97
2019-05-07T10:38:18.206Z,22.42
2019-05-07T10:43:46.453Z,21.42
2019-05-07T10:46:24.646Z,20.08
2019-05-07T10:49:06.651Z,21.95
2019-05-07T10:51:42.413Z,17.82
2019-05-07T10:54:25.517Z,19.27
2019-05-07T10:56:59.800Z,18.32
2019-05-07T10:59:32.619Z,19.37
2019-05-07T11:02:12.601Z,19.65
2019-05-07T11:04:47.839Z,17.12
2019-05-07T11:09:56.660Z,19.48
2019-05-07T11:12:33.042Z,14.20
2019-05-07T11:15:17.305Z,16.77
2019-05-07T11:18:02.683Z,16.00
2019-05-07T11:20:49.874Z,19.27
2019-05-07T11:23:18.474Z,18.70
2019-05-07T11:25:54.804Z,18.62
2019-05-07T11:28:29.014Z,17.67
2019-05-07T11:31:06.539Z,15.23
2019-05-07T11:33:41.942Z,14.30
2019-05-07T11:36:20.663Z,17.45
2019-05-07T11:38:54.913Z,15.48
2019-05-07T11:41:51.791Z,15.23
2019-05-07T11:44:32.118Z,17.82
2019-05-07T11:47:13.030Z,13.75
2019-05-07T11:50:06.616Z,15.25
2019-05-07T11:58:12.986Z,13.72
2019-05-07T12:00:46.180Z,11.65
2019-05-07T12:03:25.328Z,12.37
2019-05-07T12:06:04.574Z,14.30
2019-05-07T12:08:49.752Z,11.30
2019-05-07T12:11:23.542Z,11.38
2019-05-07T12:14:05.148Z,13.08
2019-05-07T12:16:44.677Z,14.95
2019-05-07T12:19:35.493Z,11.45
2019-05-07T12:22:09.226Z,12.88
2019-05-07T12:24:45.677Z,10.15
2019-05-07T12:27:23.058Z,10.58
2019-05-07T12:30:01.745Z,9.70
2019-05-07T12:34:43.482Z,10.05
2019-05-07T12:37:18.689Z,12.50
2019-05-07T12:39:54.285Z,11.88
2019-05-07T12:42:38.065Z,9.28
2019-05-07T12:46:52.444Z,11.08
2019-05-07T12:50:18.056Z,10.28
2019-05-07T12:53:03.690Z,8.00
2019-05-07T12:59:07.295Z,6.35
2019-05-07T13:04:22.249Z,9.30
2019-05-07T13:07:02.806Z,8.60
2019-05-07T13:09:40.047Z,8.53
2019-05-07T13:12:13.612Z,8.85
2019-05-07T13:14:52.216Z,7.62
2019-05-07T13:17:30.173Z,8.63
2019-05-07T13:20:14.333Z,7.20
2019-05-07T13:29:02.358Z,9.48
2019-05-07T13:31:38.252Z,8.48
2019-05-07T13:34:14.012Z,7.85
2019-05-07T13:36:51.640Z,9.43
2019-05-07T13:39:27.481Z,10.20
2019-05-07T13:42:08.019Z,7.75
2019-05-07T13:45:15.882Z,8.80
2019-05-07T13:47:56.679Z,7.08
2019-05-07T13:50:32.724Z,7.97
2019-05-07T13:53:22.834Z,8.53
2019-05-07T13:56:03.913Z,8.85
2019-05-07T13:58:42.865Z,8.70
2019-05-07T14:01:35.580Z,8.45
2019-05-07T14:04:09.317Z,9.23
2019-05-07T14:06:43.263Z,6.08
2019-05-07T14:09:32.637Z,8.25
2019-05-07T14:12:08.034Z,7.83
2019-05-07T14:14:53.007Z,8.20
2019-05-07T14:17:29.151Z,6.58
2019-05-07T14:20:08.166Z,5.75
2019-05-07T14:22:59.052Z,7.00
2019-05-07T14:25:32.532Z,7.10
2019-05-07T14:28:08.136Z,7.17
2019-05-07T14:30:42.665Z,8.28
2019-05-07T14:33:22.708Z,7.45
2019-05-07T14:36:05.387Z,6.90
2019-05-07T14:38:53.754Z,7.50
2019-05-07T14:41:32.595Z,5.83
2019-05-07T14:44:22.209Z,6.90
2019-05-07T14:47:16.567Z,5.60
2019-05-07T14:49:57.750Z,9.05
2019-05-07T14:52:44.170Z,9.33
2019-05-07T14:55:22.134Z,7.35
2019-05-07T14:58:02.300Z,6.85
2019-05-07T15:00:39.667Z,6.95
2019-05-07T15:03:13.916Z,9.00
2019-05-07T15:05:48.834Z,6.97
2019-05-07T15:11:19.690Z,8.25
2019-05-07T15:16:47.483Z,7.45
2019-05-07T15:19:32.115Z,8.58
2019-05-07T15:22:08.068Z,6.83
2019-05-07T15:24:42.773Z,9.48
2019-05-07T15:27:22.799Z,8.00
2019-05-07T15:30:17.759Z,6.72
2019-05-07T15:33:02.251Z,6.15
2019-05-07T15:35:35.579Z,7.03
2019-05-07T15:38:12.057Z,8.17
2019-05-07T15:40:44.844Z,6.30
2019-05-07T15:43:18.868Z,7.75
2019-05-07T15:45:52.436Z,7.60
2019-05-07T15:48:35.041Z,5.25
2019-05-07T15:51:11.864Z,5.33
2019-05-07T15:53:52.164Z,5.83
2019-05-07T15:56:24.711Z,6.17
2019-05-07T15:59:14.418Z,7.37
2019-05-07T16:01:52.102Z,9.43
2019-05-07T16:07:45.149Z,6.65
2019-05-07T16:10:17.789Z,19.62
2019-05-07T16:13:06.241Z,6.03
2019-05-07T16:15:38.977Z,6.28
2019-05-07T16:18:14.010Z,8.18
2019-05-07T16:20:52.269Z,7.20
2019-05-07T16:23:27.674Z,5.40
2019-05-07T16:29:04.709Z,7.12
2019-05-07T16:31:44.178Z,7.62
2019-05-07T16:34:22.019Z,7.08
2019-05-07T16:36:57.405Z,6.58
2019-05-07T16:39:42.183Z,6.28
2019-05-07T16:42:17.837Z,6.40
2019-05-07T16:44:52.335Z,9.85
2019-05-07T16:47:35.200Z,5.72
2019-05-07T16:50:16.062Z,6.62
2019-05-07T16:52:53.012Z,5.25
2019-05-07T16:55:29.884Z,4.90
2019-05-07T16:58:09.521Z,6.28
2019-05-07T17:00:45.375Z,6.08
2019-05-07T17:03:25.468Z,7.62
2019-05-07T17:05:58.562Z,5.20
2019-05-07T17:08:43.679Z,5.95
2019-05-07T17:11:18.781Z,7.87
2019-05-07T17:13:51.982Z,5.85
2019-05-07T17:16:31.757Z,6.33
2019-05-07T17:21:52.072Z,7.92
2019-05-07T17:24:27.319Z,5.55
2019-05-07T17:27:24.982Z,5.40
2019-05-07T17:30:04.048Z,8.40
2019-05-07T17:32:36.922Z,5.97
2019-05-07T17:35:14.951Z,6.90
2019-05-07T17:40:25.102Z,9.25
2019-05-07T17:43:05.465Z,7.17
2019-05-07T17:45:43.571Z,11.50
2019-05-07T17:48:15.926Z,8.33
2019-05-07T17:51:08.869Z,9.68
2019-05-07T17:54:16.019Z,9.45
2019-05-07T17:56:52.666Z,9.08
2019-05-07T17:59:34.144Z,13.03
2019-05-07T18:02:10.220Z,8.00
2019-05-07T18:04:50.927Z,8.85
2019-05-07T18:07:22.339Z,10.45
2019-05-07T18:10:06.511Z,9.48
2019-05-07T18:12:44.142Z,8.75
2019-05-07T18:15:17.403Z,7.70
2019-05-07T18:18:02.869Z,9.27
2019-05-07T18:20:43.350Z,10.75
2019-05-07T18:23:24.147Z,7.20
2019-05-07T18:26:05.638Z,9.93
2019-05-07T18:28:43.236Z,12.93
2019-05-07T18:31:17.113Z,7.80
2019-05-07T18:33:59.346Z,8.38
2019-05-07T18:36:42.360Z,8.90
2019-05-07T18:39:20.233Z,9.58
2019-05-07T18:41:52.265Z,9.38
2019-05-07T18:45:04.833Z,10.88
2019-05-07T18:47:44.461Z,9.88
2019-05-07T18:50:17.251Z,12.35
2019-05-07T18:52:57.403Z,9.25
2019-05-07T19:09:01.085Z,10.23
2019-05-07T19:14:23.128Z,7.35
2019-05-07T19:17:07.075Z,10.90
2019-05-07T19:19:52.494Z,11.20
2019-05-07T19:22:53.584Z,14.40
2019-05-07T19:25:45.178Z,11.63
2019-05-07T19:28:25.688Z,10.91
2019-05-07T19:31:12.496Z,10.03
2019-05-07T19:33:49.502Z,10.70
2019-05-07T19:36:38.432Z,10.58
2019-05-07T19:39:13.500Z,12.10
2019-05-07T19:41:54.450Z,10.05
2019-05-07T19:44:30.375Z,14.95
2019-05-07T19:47:08.143Z,13.83
2019-05-07T19:50:41.942Z,15.68
2019-05-07T19:53:23.733Z,12.58
2019-05-07T20:01:24.747Z,13.83
2019-05-07T20:06:59.079Z,23.02
2019-05-07T20:09:37.563Z,21.77
2019-05-07T20:12:17.389Z,19.17
2019-05-07T20:14:59.620Z,57.98
2019-05-07T20:17:37.946Z,21.42
2019-05-07T20:23:18.705Z,14.47
2019-05-07T20:25:56.871Z,14.20
2019-05-07T20:28:57.246Z,13.85
2019-05-07T20:31:42.337Z,12.73
2019-05-07T20:34:22.016Z,16.05
2019-05-07T20:37:06.329Z,17.42
2019-05-07T20:39:42.220Z,15.68
2019-05-07T20:42:18.186Z,12.88
2019-05-07T20:45:02.846Z,14.15
2019-05-07T20:47:36.434Z,15.18
2019-05-07T20:50:16.547Z,15.98
2019-05-07T20:52:56.442Z,14.30
2019-05-07T20:55:52.949Z,14.60
2019-05-07T20:58:26.534Z,14.80
2019-05-07T21:01:02.946Z,14.68
2019-05-07T21:03:47.187Z,15.88
2019-05-07T21:06:22.874Z,17.17
2019-05-07T21:09:04.895Z,15.35
2019-05-07T21:11:44.475Z,17.55
2019-05-07T21:14:43.338Z,16.07
2019-05-07T21:17:16.562Z,17.37
2019-05-07T21:19:51.907Z,27.87
2019-05-07T21:22:31.983Z,18.23
2019-05-07T21:25:04.956Z,20.43
2019-05-07T21:27:39.278Z,20.52
2019-05-07T21:30:17.496Z,24.52
2019-05-07T21:33:04.307Z,21.48
2019-05-07T21:35:52.467Z,24.72
2019-05-07T21:38:36.685Z,30.90
2019-05-07T21:41:09.160Z,34.27
2019-05-07T21:43:46.194Z,42.10
2019-05-07T21:46:27.118Z,34.55
2019-05-07T21:49:04.173Z,30.88
2019-05-07T21:51:41.241Z,23.65
2019-05-07T21:54:23.730Z,17.02
2019-05-07T21:57:06.351Z,21.37
2019-05-07T21:59:44.658Z,18.05
2019-05-07T22:02:26.913Z,15.93
2019-05-07T22:04:59.537Z,16.42
2019-05-07T22:10:14.525Z,14.50
2019-05-07T22:15:31.868Z,12.93
2019-05-07T22:18:04.238Z,16.67
2019-05-07T22:23:32.338Z,13.55
2019-05-07T22:26:20.370Z,15.63
2019-05-07T22:28:54.456Z,14.07
2019-05-07T22:31:55.320Z,15.15
2019-05-07T22:34:37.400Z,14.40
2019-05-07T22:37:21.821Z,17.12
2019-05-07T22:40:08.292Z,18.23
2019-05-07T22:42:44.657Z,14.95
2019-05-07T22:45:22.738Z,18.05
2019-05-07T22:47:58.317Z,15.70
2019-05-07T22:50:47.487Z,16.75
2019-05-07T22:53:26.131Z,16.60
2019-05-07T22:55:58.400Z,15.83
2019-05-07T22:58:36.408Z,16.47
2019-05-07T23:01:33.838Z,18.85
2019-05-07T23:04:06.533Z,17.00
2019-05-07T23:06:43.710Z,17.80
2019-05-07T23:09:24.470Z,15.50
2019-05-07T23:12:07.160Z,15.83
2019-05-07T23:14:46.807Z,13.10
2019-05-07T23:17:28.219Z,12.82
2019-05-07T23:20:09.004Z,14.87
2019-05-07T23:22:44.021Z,13.95
2019-05-07T23:25:32.220Z,13.98
2019-05-07T23:28:06.398Z,12.28
2019-05-07T23:33:23.625Z,17.52
2019-05-07T23:39:04.195Z,14.25
2019-05-07T23:41:43.512Z,13.03
2019-05-07T23:44:26.765Z,14.80
2019-05-07T23:47:05.205Z,15.08
2019-05-07T23:49:43.011Z,12.68
2019-05-07T23:52:22.543Z,11.70
2019-05-07T23:55:07.481Z,13.18
2019-05-07T23:57:43.129Z,14.55
